Marfa's Hourly Summary for Wednesday, August 26, 2026
Hour Temp
(f)
RH
(%)
Solar Rad.
(MJ/m2)
Rainfall
(in)
Wind
(mph)
Battery
(volts)
8/26/2026 12:00 AM 82 30 0 0 8.51 0
8/26/2026 1:00 AM 81 33 0 0 4.88 0
8/26/2026 2:00 AM 82 33 0 0 6.85 0
8/26/2026 3:00 AM 80 36 0 0 4.75 0
8/26/2026 4:00 AM 75 43 0 0 1.87 0
8/26/2026 5:00 AM 71 46 0 0 3.94 0
8/26/2026 6:00 AM 68 47 0 0 3.62 0
8/26/2026 7:00 AM 66 51 0 0 4.77 0
8/26/2026 8:00 AM 68 51 0.05 0 4.17 0
8/26/2026 9:00 AM 73 45 0.24 0 5.04 0
8/26/2026 10:00 AM 81 37 0.44 0 4.11 0
8/26/2026 11:00 AM 86 33 0.63 0 3.52 0
8/26/2026 12:00 PM 90 27 0.79 0 3.56 0
8/26/2026 1:00 PM 92 22 0.88 0 4.25 0
8/26/2026 2:00 PM 96 16 0.91 0 8.95 0
8/26/2026 3:00 PM 97 13 0.88 0 12.48 0
8/26/2026 4:00 PM 96 20 0.78 0 8.25 0
8/26/2026 5:00 PM 97 21 0.65 0 12.54 0
8/26/2026 6:00 PM 96 19 0.45 0 7.71 0
8/26/2026 7:00 PM 94 20 0.25 0 8.54 0
8/26/2026 8:00 PM 91 24 0.01 0 9.52 0
8/26/2026 9:00 PM 88 26 0 0 8.78 0
8/26/2026 10:00 PM 86 30 0 0 6.98 0
8/26/2026 11:00 PM 84 33 0 0 3.24 0
Data Summary 84 31 6.96 0.00 6.28 0.00